South Harwich, Massachusetts
Current Conditions -  °F | °C
As of 4:52 AM on Sunday 26 Oct 2014 (Local Time) from KCQX Reporting Station
Light Rain Light Rain  
Wind Chill: 56°   Ceiling: 9500
Heat Index: 56°   Visibility: 10mi
Dew Point: 47°   Wind: 5mph
Humidity: 72%   Direction: NA
Pressure: 29.45"   Gusts: NA
Location:  41.67°N, 70.04°W
Report Text: KCQX 260852Z AUTO VRB04KT 10SM -RA FEW080 OVC095 13/08 A2945 RMK AO2 RAB39 SLP975 P0000 60000 T01330083 58012
Loading
Personal Weather Stations






























Interactive Weather Map
Tropical Storm Tracking
New forecast layout! Learn more

10-Day Weather Forecast

Advertisements
Track Severe Weather on mobile